createdAt,value
2017-12-24T00:02:36.742Z,67.38
2017-12-24T00:17:36.248Z,67.75
2017-12-24T00:32:35.122Z,68.12
2017-12-24T00:47:37.039Z,69.34
2017-12-24T01:02:34.973Z,70.10
2017-12-24T01:17:34.463Z,70.23
2017-12-24T01:32:34.392Z,70.66
2017-12-24T01:47:51.111Z,71.12
2017-12-24T02:02:34.230Z,71.26
2017-12-24T02:17:36.677Z,71.16
2017-12-24T02:32:34.579Z,71.23
2017-12-24T02:47:34.967Z,71.25
2017-12-24T03:02:34.528Z,71.55
2017-12-24T03:17:34.887Z,71.76
2017-12-24T03:32:34.801Z,71.90
2017-12-24T03:47:34.654Z,72.03
2017-12-24T04:02:34.663Z,71.79
2017-12-24T04:17:34.595Z,71.10
2017-12-24T04:47:35.589Z,70.24
2017-12-24T05:02:34.863Z,69.89
2017-12-24T05:17:33.763Z,69.81
2017-12-24T05:32:35.196Z,70.56
2017-12-24T06:02:35.003Z,72.31
2017-12-24T06:17:34.484Z,72.25
2017-12-24T06:32:34.415Z,79.82
2017-12-24T09:17:36.710Z,70.54
2017-12-24T09:47:37.011Z,68.93
2017-12-24T10:02:34.895Z,66.13
2017-12-24T10:17:34.242Z,65.36
2017-12-24T10:32:35.257Z,65.84
2017-12-24T10:47:34.163Z,66.71
2017-12-24T11:02:35.051Z,68.05
2017-12-24T11:17:35.470Z,67.94
2017-12-24T11:32:34.398Z,67.59
2017-12-24T11:47:36.324Z,66.16
2017-12-24T12:02:34.258Z,62.67
2017-12-24T12:17:34.693Z,60.29
2017-12-24T12:32:34.626Z,59.42
2017-12-24T12:47:34.609Z,62.51
2017-12-24T13:02:34.486Z,64.62
2017-12-24T13:17:40.991Z,66.01
2017-12-24T13:32:37.924Z,67.22
2017-12-24T13:47:36.778Z,68.73
2017-12-24T14:02:34.763Z,69.38
2017-12-24T14:17:34.177Z,69.87
2017-12-24T14:32:38.140Z,70.18
2017-12-24T14:47:35.023Z,70.63
2017-12-24T15:02:34.918Z,70.79
2017-12-24T15:17:34.698Z,65.97
2017-12-24T15:32:36.663Z,66.26
2017-12-24T15:47:34.566Z,68.32
2017-12-24T16:02:34.555Z,69.29
2017-12-24T16:17:34.447Z,69.69
2017-12-24T16:32:34.656Z,70.57
2017-12-24T16:47:37.593Z,71.56
